This is the latest recevied weather packets stored in our database for station/object KM4KMO-14. If no packets are shown the sender has not sent any weather packets the latest 10 day(s).
| Time | Temp. | Humidity | Pressure | Rain* | Wind** | Luminosity | Snow |
|---|---|---|---|---|---|---|---|
| 1777906640 | 18.33° C | 63% | 1014.6 hPa | 0 mm | - | - | - |
| 1777905740 | 17.22° C | 65% | 1014.7 hPa | 0 mm | - | - | - |
| 1777904840 | 16.11° C | 68% | 1014.7 hPa | 0 mm | - | - | - |
| 1777903940 | 15° C | 73% | 1014.9 hPa | 0 mm | - | - | - |
| 1777903040 | 13.89° C | 74% | 1015.1 hPa | 0 mm | - | - | - |
| 1777901240 | 12.22° C | 80% | 1015.2 hPa | 0 mm | - | - | - |
| 1777899440 | 10.56° C | 84% | 1015 hPa | 0 mm | - | - | - |
| 1777898541 | 9.44° C | 86% | 1015 hPa | 0 mm | - | - | - |
| 1777897640 | 8.89° C | 87% | 1015 hPa | 0 mm | - | - | - |
| 1777896740 | 8.33° C | 89% | 1014.9 hPa | 0 mm | - | - | - |
| 1777894940 | 8.33° C | 88% | 1014.7 hPa | 0 mm | - | - | - |
| 1777894040 | 8.33° C | 88% | 1014.6 hPa | 0 mm | - | - | - |
| 1777893140 | 7.78° C | 87% | 1014.5 hPa | 0 mm | - | - | - |
| 1777892240 | 7.78° C | 86% | 1014.3 hPa | 0 mm | - | - | - |
| 1777891340 | 8.33° C | 85% | 1014.2 hPa | 0 mm | - | - | - |
| 1777890440 | 8.33° C | 85% | 1014.3 hPa | 0 mm | - | - | - |
| 1777889540 | 8.33° C | 85% | 1014.3 hPa | 0 mm | - | - | - |
| 1777888640 | 8.33° C | 85% | 1014.4 hPa | 0 mm | - | - | - |
| 1777887741 | 8.33° C | 85% | 1014.5 hPa | 0 mm | - | - | - |
| 1777886840 | 8.89° C | 85% | 1014.5 hPa | 0 mm | - | - | - |
| 1777885941 | 8.89° C | 83% | 1014.5 hPa | 0 mm | - | - | - |
| 1777885040 | 8.89° C | 84% | 1014.4 hPa | 0 mm | - | - | - |
| 1777884141 | 8.89° C | 82% | 1014.5 hPa | 0 mm | - | - | - |
| 1777883241 | 8.89° C | 81% | 1014.3 hPa | 0 mm | - | - | - |
| 1777882341 | 8.89° C | 80% | 1014.3 hPa | 0 mm | - | - | - |
* Rain latest hour (hover to see other rain measurements)
** Current wind speed in m/s (hover to see current wind gust speed)